createdAt,value
2023-05-20T00:00:10.059Z,1008.84
2023-05-20T00:02:43.449Z,1008.84
2023-05-20T00:05:16.305Z,1008.84
2023-05-20T00:07:49.252Z,1008.84
2023-05-20T00:10:22.327Z,1008.83
2023-05-20T00:12:55.336Z,1008.83
2023-05-20T00:15:28.443Z,1008.83
2023-05-20T00:18:02.439Z,1008.82
2023-05-20T00:20:35.374Z,1008.82
2023-05-20T00:23:07.997Z,1008.82
2023-05-20T00:25:44.050Z,1008.82
2023-05-20T00:28:17.343Z,1008.82
2023-05-20T00:30:51.378Z,1008.81
2023-05-20T00:33:24.418Z,1008.80
2023-05-20T00:35:57.395Z,1008.80
2023-05-20T00:38:30.373Z,1008.79
2023-05-20T00:41:03.333Z,1008.79
2023-05-20T00:43:36.504Z,1008.79
2023-05-20T00:46:10.556Z,1008.80
2023-05-20T00:48:44.507Z,1008.80
2023-05-20T00:51:17.322Z,1008.80
2023-05-20T00:53:50.324Z,1008.81
2023-05-20T00:56:23.446Z,1008.82
2023-05-20T00:58:56.695Z,1008.79
2023-05-20T01:01:30.531Z,1008.80
2023-05-20T01:04:04.253Z,1008.79
2023-05-20T01:06:37.454Z,1008.78
2023-05-20T01:09:10.570Z,1008.77
2023-05-20T01:11:44.448Z,1008.74
2023-05-20T01:14:17.449Z,1008.72
2023-05-20T01:16:50.367Z,1008.71
2023-05-20T01:19:23.538Z,1008.70
2023-05-20T01:21:56.397Z,1008.68
2023-05-20T01:24:29.567Z,1008.65
2023-05-20T01:27:03.243Z,1008.63
2023-05-20T01:29:36.440Z,1008.62
2023-05-20T01:32:09.452Z,1008.60
2023-05-20T01:34:42.634Z,1008.59
2023-05-20T01:37:16.461Z,1008.57
2023-05-20T01:39:49.377Z,1008.55
2023-05-20T01:42:22.516Z,1008.55
2023-05-20T01:44:55.444Z,1008.55
2023-05-20T01:47:28.633Z,1008.54
2023-05-20T01:50:02.668Z,1008.53
2023-05-20T01:52:36.454Z,1008.52
2023-05-20T01:55:09.527Z,1008.51
2023-05-20T01:57:42.617Z,1008.50
2023-05-20T02:00:16.410Z,1008.48
2023-05-20T02:02:49.541Z,1008.49
2023-05-20T02:05:22.454Z,1008.51
2023-05-20T02:07:55.157Z,1008.50
2023-05-20T02:10:28.513Z,1008.51
2023-05-20T02:13:01.576Z,1008.52
2023-05-20T02:15:34.960Z,1008.50
2023-05-20T02:18:08.325Z,1008.51
2023-05-20T02:20:41.580Z,1008.51
2023-05-20T02:23:14.501Z,1008.51
2023-05-20T02:25:47.479Z,1008.51
2023-05-20T02:28:20.635Z,1008.48
2023-05-20T02:30:54.503Z,1008.46
2023-05-20T02:33:27.643Z,1008.43
2023-05-20T02:36:01.420Z,1008.42
2023-05-20T02:38:34.551Z,1008.42
2023-05-20T02:41:21.279Z,1008.42
2023-05-20T02:43:54.497Z,1008.42
2023-05-20T02:46:27.512Z,1008.42
2023-05-20T02:49:00.436Z,1008.40
2023-05-20T02:51:33.587Z,1008.40
2023-05-20T02:54:06.503Z,1008.38
2023-05-20T02:56:39.445Z,1008.36
2023-05-20T02:59:12.573Z,1008.35
2023-05-20T03:01:45.472Z,1008.32
2023-05-20T03:04:18.548Z,1008.29
2023-05-20T03:06:51.609Z,1008.27
2023-05-20T03:09:24.544Z,1008.25
2023-05-20T03:11:57.508Z,1008.23
2023-05-20T03:14:36.504Z,1008.22
2023-05-20T03:17:09.620Z,1008.21
2023-05-20T03:19:42.713Z,1008.19
2023-05-20T03:22:16.702Z,1008.18
2023-05-20T03:24:49.657Z,1008.17
2023-05-20T03:27:22.389Z,1008.17
2023-05-20T03:29:55.535Z,1008.16
2023-05-20T03:32:28.916Z,1008.16
2023-05-20T03:35:02.492Z,1008.15
2023-05-20T03:37:35.486Z,1008.16
2023-05-20T03:40:08.722Z,1008.16
2023-05-20T03:42:41.440Z,1008.15
2023-05-20T03:45:14.624Z,1008.12
2023-05-20T03:47:47.706Z,1008.10
2023-05-20T03:50:20.663Z,1008.08
2023-05-20T03:52:53.724Z,1008.08
2023-05-20T03:55:26.671Z,1008.10
2023-05-20T03:57:59.606Z,1008.12
2023-05-20T04:00:32.386Z,1008.13
2023-05-20T04:03:05.392Z,1008.14
2023-05-20T04:05:38.617Z,1008.14
2023-05-20T04:08:11.746Z,1008.14
2023-05-20T04:10:44.615Z,1008.13
2023-05-20T04:13:17.713Z,1008.13
2023-05-20T04:15:50.846Z,1008.13
2023-05-20T04:18:24.697Z,1008.14
2023-05-20T04:20:57.359Z,1008.13
2023-05-20T04:23:30.764Z,1008.11
2023-05-20T04:26:03.602Z,1008.10
2023-05-20T04:28:36.685Z,1008.08
2023-05-20T04:31:09.627Z,1008.08
2023-05-20T04:33:42.674Z,1008.08
2023-05-20T04:36:15.663Z,1008.09
2023-05-20T04:38:48.496Z,1008.11
2023-05-20T04:41:21.398Z,1008.10
2023-05-20T04:43:54.789Z,1008.10
2023-05-20T04:46:27.652Z,1008.10
2023-05-20T04:49:00.663Z,1008.07
2023-05-20T04:51:33.717Z,1008.07
2023-05-20T04:54:06.776Z,1008.07
2023-05-20T04:56:39.741Z,1008.06
2023-05-20T04:59:12.753Z,1008.05
2023-05-20T05:01:45.767Z,1008.02
2023-05-20T05:04:18.446Z,1008.03
2023-05-20T05:06:55.380Z,1008.02
2023-05-20T05:09:28.743Z,1008.00
2023-05-20T05:12:01.705Z,1008.01
2023-05-20T05:14:34.734Z,1008.01
2023-05-20T05:17:07.708Z,1008.01
2023-05-20T05:19:40.530Z,1007.99
2023-05-20T05:22:13.592Z,1007.99
2023-05-20T05:24:46.874Z,1007.97
2023-05-20T05:27:19.770Z,1007.95
2023-05-20T05:29:52.765Z,1007.92
2023-05-20T05:32:25.911Z,1007.89
2023-05-20T05:34:58.867Z,1007.88
2023-05-20T05:37:31.841Z,1007.86
2023-05-20T05:40:04.730Z,1007.83
2023-05-20T05:42:37.589Z,1007.80
2023-05-20T05:45:10.667Z,1007.78
2023-05-20T05:47:43.842Z,1007.74
2023-05-20T05:50:16.654Z,1007.73
2023-05-20T05:52:49.791Z,1007.72
2023-05-20T05:55:22.631Z,1007.71
2023-05-20T05:57:55.948Z,1007.70
2023-05-20T06:00:29.892Z,1007.69
2023-05-20T06:03:02.772Z,1007.67
2023-05-20T06:05:36.051Z,1007.67
2023-05-20T06:08:08.772Z,1007.69
2023-05-20T06:10:41.932Z,1007.69
2023-05-20T06:13:14.824Z,1007.68
2023-05-20T06:15:47.681Z,1007.67
2023-05-20T06:18:20.829Z,1007.67
2023-05-20T06:20:53.870Z,1007.67
2023-05-20T06:23:26.848Z,1007.68
2023-05-20T06:25:59.901Z,1007.68
2023-05-20T06:28:32.895Z,1007.68
2023-05-20T06:31:05.910Z,1007.66
2023-05-20T06:33:42.712Z,1007.63
2023-05-20T06:36:15.633Z,1007.62
2023-05-20T06:38:48.837Z,1007.58
2023-05-20T06:41:21.884Z,1007.56
2023-05-20T06:43:54.570Z,1007.54
2023-05-20T06:46:27.884Z,1007.54
2023-05-20T06:49:00.631Z,1007.53
2023-05-20T06:51:33.959Z,1007.51
2023-05-20T06:54:06.906Z,1007.51
2023-05-20T06:56:39.730Z,1007.51
2023-05-20T06:59:12.582Z,1007.52
2023-05-20T07:01:45.763Z,1007.52
2023-05-20T07:04:18.857Z,1007.53
2023-05-20T07:06:52.137Z,1007.54
2023-05-20T07:09:25.641Z,1007.52
2023-05-20T07:11:58.742Z,1007.49
2023-05-20T07:14:31.721Z,1007.47
2023-05-20T07:17:04.786Z,1007.46
2023-05-20T07:19:37.927Z,1007.41
2023-05-20T07:22:10.620Z,1007.38
2023-05-20T07:24:43.803Z,1007.38
2023-05-20T07:27:17.836Z,1007.37
2023-05-20T07:29:50.715Z,1007.35
2023-05-20T07:32:23.930Z,1007.34
2023-05-20T07:34:57.004Z,1007.34
2023-05-20T07:37:29.894Z,1007.31
2023-05-20T07:40:02.815Z,1007.28
2023-05-20T07:42:35.860Z,1007.26
2023-05-20T07:45:08.680Z,1007.25
2023-05-20T07:47:41.780Z,1007.23
2023-05-20T07:50:14.670Z,1007.23
2023-05-20T07:52:55.880Z,1007.22
2023-05-20T07:55:21.042Z,1007.19
2023-05-20T07:57:54.034Z,1007.17
2023-05-20T08:00:26.979Z,1007.15
2023-05-20T08:03:00.037Z,1007.14
2023-05-20T08:05:33.134Z,1007.14
2023-05-20T08:08:05.685Z,1007.13
2023-05-20T08:10:38.805Z,1007.14
2023-05-20T08:13:11.700Z,1007.13
2023-05-20T08:15:44.902Z,1007.13
2023-05-20T08:18:17.819Z,1007.12
2023-05-20T08:20:50.823Z,1007.11
2023-05-20T08:23:23.803Z,1007.08
2023-05-20T08:25:56.877Z,1007.05
2023-05-20T08:28:30.082Z,1007.04
2023-05-20T08:31:03.012Z,1007.02
2023-05-20T08:33:36.219Z,1007.02
2023-05-20T08:36:10.060Z,1007.01
2023-05-20T08:38:42.860Z,1007.01
2023-05-20T08:41:15.988Z,1007.01
2023-05-20T08:43:49.143Z,1007.01
2023-05-20T08:46:22.162Z,1007.01
2023-05-20T08:48:55.299Z,1007.01
2023-05-20T08:51:29.161Z,1007.00
2023-05-20T08:54:02.149Z,1006.98
2023-05-20T08:56:35.067Z,1006.96
2023-05-20T08:59:09.081Z,1006.94
2023-05-20T09:01:42.056Z,1006.92
2023-05-20T09:04:15.040Z,1006.89
2023-05-20T09:06:48.123Z,1006.87
2023-05-20T09:09:21.049Z,1006.84
2023-05-20T09:11:55.265Z,1006.80
2023-05-20T09:14:28.981Z,1006.76
2023-05-20T09:17:01.905Z,1006.74
2023-05-20T09:19:35.181Z,1006.71
2023-05-20T09:22:07.950Z,1006.66
2023-05-20T09:24:41.123Z,1006.64
2023-05-20T09:27:14.032Z,1006.60
2023-05-20T09:29:47.123Z,1006.58
2023-05-20T09:32:20.058Z,1006.57
2023-05-20T09:34:53.135Z,1006.57
2023-05-20T09:37:26.057Z,1006.56
2023-05-20T09:39:59.091Z,1006.56
2023-05-20T09:42:31.953Z,1006.54
2023-05-20T09:45:07.920Z,1006.54
2023-05-20T09:47:41.270Z,1006.55
2023-05-20T09:50:14.121Z,1006.54
2023-05-20T09:52:46.822Z,1006.53
2023-05-20T09:55:20.168Z,1006.50
2023-05-20T09:57:52.950Z,1006.49
2023-05-20T10:00:26.190Z,1006.47
2023-05-20T10:02:59.307Z,1006.46
2023-05-20T10:05:32.334Z,1006.46
2023-05-20T10:08:05.199Z,1006.45
2023-05-20T10:10:38.214Z,1006.40
2023-05-20T10:13:11.172Z,1006.39
2023-05-20T10:15:44.276Z,1006.36
2023-05-20T10:18:17.121Z,1006.34
2023-05-20T10:20:50.211Z,1006.32
2023-05-20T10:23:23.365Z,1006.30
2023-05-20T10:25:57.078Z,1006.30
2023-05-20T10:28:30.045Z,1006.28
2023-05-20T10:31:03.386Z,1006.26
2023-05-20T10:33:37.383Z,1006.24
2023-05-20T10:36:11.176Z,1006.23
2023-05-20T10:38:44.269Z,1006.19
2023-05-20T10:41:17.303Z,1006.17
2023-05-20T10:43:53.177Z,1006.14
2023-05-20T10:46:33.975Z,1006.13
2023-05-20T10:49:00.366Z,1006.12
2023-05-20T10:51:33.333Z,1006.12
2023-05-20T10:54:06.214Z,1006.12
2023-05-20T10:56:39.176Z,1006.11
2023-05-20T10:59:12.063Z,1006.10
2023-05-20T11:01:45.273Z,1006.09
2023-05-20T11:04:18.232Z,1006.07
2023-05-20T11:06:51.347Z,1006.03
2023-05-20T11:09:27.389Z,1006.00
2023-05-20T11:12:01.346Z,1005.96
2023-05-20T11:14:34.334Z,1005.92
2023-05-20T11:17:07.550Z,1005.92
2023-05-20T11:19:41.315Z,1005.90
2023-05-20T11:22:14.382Z,1005.88
2023-05-20T11:24:47.330Z,1005.85
2023-05-20T11:27:19.956Z,1005.82
2023-05-20T11:29:53.309Z,1005.77
2023-05-20T11:32:26.548Z,1005.74
2023-05-20T11:34:59.288Z,1005.71
2023-05-20T11:37:32.276Z,1005.71
2023-05-20T11:40:05.158Z,1005.67
2023-05-20T11:42:38.138Z,1005.66
2023-05-20T11:45:11.194Z,1005.64
2023-05-20T11:47:44.183Z,1005.62
2023-05-20T11:50:17.082Z,1005.62
2023-05-20T11:52:50.229Z,1005.60
2023-05-20T11:55:23.007Z,1005.59
2023-05-20T11:57:56.125Z,1005.58
2023-05-20T12:00:39.575Z,1005.57
2023-05-20T12:03:02.459Z,1005.56
2023-05-20T12:05:35.305Z,1005.56
2023-05-20T12:08:08.242Z,1005.55
2023-05-20T12:10:41.434Z,1005.54
2023-05-20T12:13:14.171Z,1005.52
2023-05-20T12:15:47.447Z,1005.50
2023-05-20T12:18:20.399Z,1005.49
2023-05-20T12:20:53.360Z,1005.46
2023-05-20T12:23:26.296Z,1005.44
2023-05-20T12:25:59.469Z,1005.42
2023-05-20T12:28:32.367Z,1005.41
2023-05-20T12:31:05.429Z,1005.38
2023-05-20T12:33:38.540Z,1005.35
2023-05-20T12:36:12.386Z,1005.34
2023-05-20T12:38:45.440Z,1005.32
2023-05-20T12:41:18.216Z,1005.29
2023-05-20T12:43:51.199Z,1005.27
2023-05-20T12:46:24.213Z,1005.25
2023-05-20T12:48:57.594Z,1005.27
2023-05-20T12:51:30.224Z,1005.29
2023-05-20T12:54:03.483Z,1005.29
2023-05-20T12:56:36.205Z,1005.28
2023-05-20T12:59:09.431Z,1005.26
2023-05-20T13:01:42.249Z,1005.26
2023-05-20T13:04:15.165Z,1005.25
2023-05-20T13:06:48.280Z,1005.25
2023-05-20T13:09:21.127Z,1005.24
2023-05-20T13:11:54.234Z,1005.20
2023-05-20T13:14:27.368Z,1005.18
2023-05-20T13:17:00.456Z,1005.18
2023-05-20T13:19:33.572Z,1005.20
2023-05-20T13:22:06.316Z,1005.20
2023-05-20T13:24:39.263Z,1005.20
2023-05-20T13:27:13.239Z,1005.19
2023-05-20T13:29:46.313Z,1005.16
2023-05-20T13:32:19.664Z,1005.13
2023-05-20T13:34:53.377Z,1005.09
2023-05-20T13:37:26.147Z,1005.07
2023-05-20T13:39:59.555Z,1005.05
2023-05-20T13:42:32.283Z,1005.02
2023-05-20T13:45:05.248Z,1004.99
2023-05-20T13:47:38.327Z,1004.95
2023-05-20T13:50:11.504Z,1004.93
2023-05-20T13:52:44.541Z,1004.92
2023-05-20T13:55:17.171Z,1004.91
2023-05-20T13:57:50.642Z,1004.89
2023-05-20T14:00:24.428Z,1004.85
2023-05-20T14:02:57.730Z,1004.82
2023-05-20T14:05:30.520Z,1004.79
2023-05-20T14:08:06.436Z,1004.74
2023-05-20T14:10:39.359Z,1004.73
2023-05-20T14:13:12.347Z,1004.70
2023-05-20T14:15:45.307Z,1004.66
2023-05-20T14:18:18.356Z,1004.63
2023-05-20T14:20:51.374Z,1004.60
2023-05-20T14:23:24.204Z,1004.59
2023-05-20T14:25:57.236Z,1004.57
2023-05-20T14:28:30.480Z,1004.55
2023-05-20T14:31:03.266Z,1004.53
2023-05-20T14:33:36.400Z,1004.52
2023-05-20T14:36:09.269Z,1004.47
2023-05-20T14:38:42.375Z,1004.45
2023-05-20T14:41:15.736Z,1004.45
2023-05-20T14:43:49.509Z,1004.43
2023-05-20T14:46:22.711Z,1004.43
2023-05-20T14:48:55.558Z,1004.43
2023-05-20T14:51:28.534Z,1004.41
2023-05-20T14:54:01.344Z,1004.41
2023-05-20T14:56:34.567Z,1004.41
2023-05-20T14:59:07.518Z,1004.38
2023-05-20T15:01:40.570Z,1004.36
2023-05-20T15:04:15.939Z,1004.33
2023-05-20T15:06:54.487Z,1004.31
2023-05-20T15:09:27.282Z,1004.30
2023-05-20T15:12:00.640Z,1004.28
2023-05-20T15:14:36.378Z,1004.26
2023-05-20T15:17:09.599Z,1004.25
2023-05-20T15:19:42.607Z,1004.24
2023-05-20T15:22:15.648Z,1004.23
2023-05-20T15:24:48.587Z,1004.20
2023-05-20T15:27:22.397Z,1004.20
2023-05-20T15:29:55.601Z,1004.21
2023-05-20T15:32:28.663Z,1004.21
2023-05-20T15:35:02.622Z,1004.23
2023-05-20T15:37:34.346Z,1004.24
2023-05-20T15:40:10.199Z,1004.26
2023-05-20T15:42:43.758Z,1004.26
2023-05-20T15:45:16.439Z,1004.28
2023-05-20T15:47:49.603Z,1004.29
2023-05-20T15:50:22.545Z,1004.30
2023-05-20T15:52:55.608Z,1004.31
2023-05-20T15:55:28.339Z,1004.31
2023-05-20T15:58:01.661Z,1004.31
2023-05-20T16:00:34.979Z,1004.31
2023-05-20T16:03:07.457Z,1004.31
2023-05-20T16:05:40.565Z,1004.30
2023-05-20T16:08:13.525Z,1004.29
2023-05-20T16:10:46.719Z,1004.30
2023-05-20T16:13:19.525Z,1004.31
2023-05-20T16:15:52.716Z,1004.33
2023-05-20T16:18:25.707Z,1004.31
2023-05-20T16:20:58.565Z,1004.30
2023-05-20T16:23:31.709Z,1004.30
2023-05-20T16:26:04.692Z,1004.28
2023-05-20T16:28:37.641Z,1004.28
2023-05-20T16:31:10.670Z,1004.26
2023-05-20T16:33:43.672Z,1004.25
2023-05-20T16:36:16.750Z,1004.25
2023-05-20T16:38:49.788Z,1004.26
2023-05-20T16:41:22.418Z,1004.27
2023-05-20T16:43:55.894Z,1004.27
2023-05-20T16:46:29.767Z,1004.29
2023-05-20T16:49:02.410Z,1004.31
2023-05-20T16:51:35.679Z,1004.32
2023-05-20T16:54:08.583Z,1004.33
2023-05-20T16:56:41.441Z,1004.36
2023-05-20T16:59:14.762Z,1004.39
2023-05-20T17:01:47.682Z,1004.39
2023-05-20T17:04:20.840Z,1004.39
2023-05-20T17:06:53.452Z,1004.39
2023-05-20T17:09:26.638Z,1004.42
2023-05-20T17:11:59.583Z,1004.45
2023-05-20T17:14:32.442Z,1004.47
2023-05-20T17:17:05.613Z,1004.47
2023-05-20T17:19:38.464Z,1004.47
2023-05-20T17:22:11.766Z,1004.48
2023-05-20T17:24:44.614Z,1004.52
2023-05-20T17:27:17.491Z,1004.54
2023-05-20T17:29:50.598Z,1004.57
2023-05-20T17:32:23.833Z,1004.58
2023-05-20T17:34:56.962Z,1004.61
2023-05-20T17:37:30.740Z,1004.61
2023-05-20T17:40:03.524Z,1004.60
2023-05-20T17:42:36.480Z,1004.59
2023-05-20T17:45:09.505Z,1004.60
2023-05-20T17:47:42.487Z,1004.59
2023-05-20T17:50:15.502Z,1004.59
2023-05-20T17:52:48.702Z,1004.58
2023-05-20T17:55:21.717Z,1004.57
2023-05-20T17:57:54.718Z,1004.58
2023-05-20T18:00:27.675Z,1004.59
2023-05-20T18:03:00.923Z,1004.58
2023-05-20T18:05:33.749Z,1004.58
2023-05-20T18:08:06.961Z,1004.60
2023-05-20T18:10:39.792Z,1004.62
2023-05-20T18:13:13.570Z,1004.62
2023-05-20T18:15:47.765Z,1004.62
2023-05-20T18:18:34.555Z,1004.63
2023-05-20T18:21:15.451Z,1004.65
2023-05-20T18:23:48.601Z,1004.67
2023-05-20T18:26:21.762Z,1004.67
2023-05-20T18:28:54.556Z,1004.67
2023-05-20T18:31:27.772Z,1004.68
2023-05-20T18:34:00.766Z,1004.71
2023-05-20T18:36:33.783Z,1004.73
2023-05-20T18:39:06.836Z,1004.74
2023-05-20T18:44:13.824Z,1004.76
2023-05-20T18:46:46.597Z,1004.77
2023-05-20T18:49:20.712Z,1004.80
2023-05-20T18:51:53.982Z,1004.81
2023-05-20T18:54:26.781Z,1004.83
2023-05-20T18:56:59.653Z,1004.85
2023-05-20T18:59:32.876Z,1004.87
2023-05-20T19:02:05.576Z,1004.87
2023-05-20T19:04:39.115Z,1004.86
2023-05-20T19:07:12.939Z,1004.85
2023-05-20T19:09:45.625Z,1004.84
2023-05-20T19:12:18.788Z,1004.82
2023-05-20T19:14:51.748Z,1004.80
2023-05-20T19:17:24.801Z,1004.79
2023-05-20T19:19:57.840Z,1004.78
2023-05-20T19:22:30.715Z,1004.79
2023-05-20T19:25:03.635Z,1004.79
2023-05-20T19:27:36.708Z,1004.77
2023-05-20T19:30:12.872Z,1004.78
2023-05-20T19:32:45.716Z,1004.80
2023-05-20T19:35:32.822Z,1004.82
2023-05-20T19:38:05.647Z,1004.82
2023-05-20T19:40:38.807Z,1004.85
2023-05-20T19:43:11.964Z,1004.86
2023-05-20T19:45:44.809Z,1004.87
2023-05-20T19:48:19.961Z,1004.90
2023-05-20T19:50:51.242Z,1004.92
2023-05-20T19:53:24.962Z,1004.94
2023-05-20T19:55:58.084Z,1004.96
2023-05-20T19:58:31.103Z,1004.95
2023-05-20T20:01:04.699Z,1004.95
2023-05-20T20:03:37.785Z,1004.97
2023-05-20T20:06:10.943Z,1004.98
2023-05-20T20:08:43.744Z,1004.99
2023-05-20T20:11:17.093Z,1005.00
2023-05-20T20:13:49.932Z,1005.01
2023-05-20T20:16:23.915Z,1005.00
2023-05-20T20:18:57.024Z,1005.01
2023-05-20T20:21:33.503Z,1005.00
2023-05-20T20:24:06.752Z,1005.01
2023-05-20T20:26:39.899Z,1005.01
2023-05-20T20:29:13.339Z,1005.01
2023-05-20T20:31:46.744Z,1005.00
2023-05-20T20:34:19.747Z,1004.98
2023-05-20T20:36:53.215Z,1004.96
2023-05-20T20:39:28.052Z,1004.94
2023-05-20T20:42:08.491Z,1004.93
2023-05-20T20:44:42.161Z,1004.91
2023-05-20T20:47:18.690Z,1004.90
2023-05-20T20:49:53.112Z,1004.87
2023-05-20T20:52:25.940Z,1004.85
2023-05-20T20:54:59.073Z,1004.84
2023-05-20T20:57:31.973Z,1004.81
2023-05-20T21:00:09.174Z,1004.80
2023-05-20T21:02:42.172Z,1004.78
2023-05-20T21:05:15.146Z,1004.76
2023-05-20T21:07:49.107Z,1004.75
2023-05-20T21:10:22.131Z,1004.74
2023-05-20T21:12:56.283Z,1004.72
2023-05-20T21:15:43.968Z,1004.71
2023-05-20T21:18:32.202Z,1004.70
2023-05-20T21:21:08.898Z,1004.66
2023-05-20T21:23:43.280Z,1004.64
2023-05-20T21:26:17.272Z,1004.62
2023-05-20T21:28:50.851Z,1004.60
2023-05-20T21:31:24.220Z,1004.58
2023-05-20T21:33:57.389Z,1004.55
2023-05-20T21:36:31.152Z,1004.53
2023-05-20T21:39:04.097Z,1004.52
2023-05-20T21:41:37.985Z,1004.50
2023-05-20T21:44:12.180Z,1004.49
2023-05-20T21:46:45.196Z,1004.49
2023-05-20T21:49:18.259Z,1004.48
2023-05-20T21:51:51.096Z,1004.47
2023-05-20T21:54:24.317Z,1004.45
2023-05-20T21:56:58.109Z,1004.45
2023-05-20T21:59:32.198Z,1004.44
2023-05-20T22:02:05.289Z,1004.41
2023-05-20T22:04:37.983Z,1004.38
2023-05-20T22:07:11.140Z,1004.36
2023-05-20T22:09:44.033Z,1004.33
2023-05-20T22:12:17.200Z,1004.32
2023-05-20T22:14:50.142Z,1004.29
2023-05-20T22:17:23.162Z,1004.25
2023-05-20T22:19:56.276Z,1004.22
2023-05-20T22:22:29.199Z,1004.19
2023-05-20T22:25:02.496Z,1004.17
2023-05-20T22:27:36.172Z,1004.14
2023-05-20T22:30:09.453Z,1004.13
2023-05-20T22:32:43.332Z,1004.10
2023-05-20T22:35:16.233Z,1004.08
2023-05-20T22:37:49.166Z,1004.05
2023-05-20T22:40:22.249Z,1004.03
2023-05-20T22:42:56.462Z,1003.99
2023-05-20T22:45:30.345Z,1003.95
2023-05-20T22:48:03.282Z,1003.90
2023-05-20T22:50:36.248Z,1003.88
2023-05-20T22:53:10.343Z,1003.84
2023-05-20T22:55:43.224Z,1003.81
2023-05-20T22:58:17.062Z,1003.77
2023-05-20T23:00:50.192Z,1003.76
2023-05-20T23:03:23.091Z,1003.73
2023-05-20T23:05:55.965Z,1003.69
2023-05-20T23:08:30.170Z,1003.67
2023-05-20T23:11:03.132Z,1003.65
2023-05-20T23:13:36.236Z,1003.61
2023-05-20T23:16:09.334Z,1003.59
2023-05-20T23:18:48.272Z,1003.56
2023-05-20T23:21:25.188Z,1003.54
2023-05-20T23:23:59.486Z,1003.52
2023-05-20T23:26:33.360Z,1003.50
2023-05-20T23:29:06.461Z,1003.50
2023-05-20T23:31:40.502Z,1003.47
2023-05-20T23:34:14.614Z,1003.45
2023-05-20T23:36:48.354Z,1003.44
2023-05-20T23:39:21.200Z,1003.40
2023-05-20T23:41:54.257Z,1003.37
2023-05-20T23:44:27.163Z,1003.36
2023-05-20T23:47:00.576Z,1003.36
2023-05-20T23:49:34.178Z,1003.35
2023-05-20T23:52:07.450Z,1003.34
2023-05-20T23:54:41.213Z,1003.33
2023-05-20T23:57:14.351Z,1003.32
2023-05-20T23:59:47.375Z,1003.30
